createdAt,value
2018-08-11T00:00:20.803Z,15.70
2018-08-11T00:02:48.763Z,15.60
2018-08-11T00:05:17.300Z,15.50
2018-08-11T00:07:45.209Z,15.40
2018-08-11T00:10:12.865Z,15.40
2018-08-11T00:12:40.422Z,15.30
2018-08-11T00:15:11.302Z,15.30
2018-08-11T00:17:39.837Z,15.30
2018-08-11T00:20:10.334Z,15.30
2018-08-11T00:22:38.475Z,15.30
2018-08-11T00:25:06.676Z,15.30
2018-08-11T00:27:34.571Z,15.40
2018-08-11T00:30:02.675Z,15.40
2018-08-11T00:32:30.201Z,15.50
2018-08-11T00:34:58.862Z,15.50
2018-08-11T00:37:26.454Z,15.50
2018-08-11T00:39:54.515Z,15.50
2018-08-11T00:42:22.137Z,15.50
2018-08-11T00:44:49.747Z,15.40
2018-08-11T00:47:17.271Z,15.50
2018-08-11T00:49:45.335Z,15.50
2018-08-11T00:52:13.526Z,15.50
2018-08-11T00:54:41.502Z,15.60
2018-08-11T00:57:09.083Z,15.60
2018-08-11T00:59:37.205Z,15.60
2018-08-11T01:02:04.906Z,15.60
2018-08-11T01:04:33.000Z,15.60
2018-08-11T01:07:00.603Z,15.60
2018-08-11T01:09:28.129Z,15.70
2018-08-11T01:11:56.198Z,15.70
2018-08-11T01:14:24.532Z,15.60
2018-08-11T01:16:52.614Z,15.70
2018-08-11T01:19:20.148Z,15.70
2018-08-11T01:21:47.694Z,15.80
2018-08-11T01:24:15.219Z,15.80
2018-08-11T01:26:43.294Z,15.80
2018-08-11T01:29:10.843Z,15.80
2018-08-11T01:31:38.367Z,15.80
2018-08-11T01:34:05.915Z,15.80
2018-08-11T01:36:34.047Z,15.80
2018-08-11T01:39:01.580Z,15.80
2018-08-11T01:41:29.430Z,15.80
2018-08-11T01:43:57.564Z,15.70
2018-08-11T01:46:25.603Z,15.80
2018-08-11T01:48:53.177Z,15.70
2018-08-11T01:51:21.317Z,15.80
2018-08-11T01:53:49.469Z,15.80
2018-08-11T01:56:17.357Z,15.90
2018-08-11T01:58:44.855Z,15.80
2018-08-11T02:01:12.411Z,15.90
2018-08-11T02:03:39.953Z,15.90
2018-08-11T02:06:07.503Z,15.90
2018-08-11T02:08:35.083Z,15.80
2018-08-11T02:11:02.639Z,15.80
2018-08-11T02:13:30.167Z,15.80
2018-08-11T02:15:58.222Z,15.80
2018-08-11T02:18:26.555Z,15.80
2018-08-11T02:20:54.126Z,15.80
2018-08-11T02:23:21.662Z,15.80
2018-08-11T02:25:49.199Z,15.70
2018-08-11T02:28:17.291Z,15.70
2018-08-11T02:30:44.854Z,15.70
2018-08-11T02:33:12.511Z,15.70
2018-08-11T02:35:40.479Z,15.70
2018-08-11T02:38:08.687Z,15.70
2018-08-11T02:40:36.297Z,15.80
2018-08-11T02:43:04.534Z,15.70
2018-08-11T02:45:32.443Z,15.70
2018-08-11T02:47:59.966Z,15.70
2018-08-11T02:50:27.521Z,15.70
2018-08-11T02:52:55.644Z,15.70
2018-08-11T02:55:23.478Z,15.70
2018-08-11T02:57:50.985Z,15.70
2018-08-11T03:00:18.571Z,15.70
2018-08-11T03:02:46.109Z,15.70
2018-08-11T03:05:13.707Z,15.70
2018-08-11T03:07:41.296Z,15.60
2018-08-11T03:10:10.598Z,15.70
2018-08-11T03:12:38.518Z,15.70
2018-08-11T03:15:08.118Z,15.80
2018-08-11T03:17:36.151Z,15.80
2018-08-11T03:20:06.169Z,15.80
2018-08-11T03:22:33.720Z,15.90
2018-08-11T03:25:01.322Z,15.90
2018-08-11T03:27:29.375Z,15.90
2018-08-11T03:29:56.910Z,15.80
2018-08-11T03:32:24.942Z,15.80
2018-08-11T03:34:53.310Z,15.90
2018-08-11T03:37:20.910Z,15.90
2018-08-11T03:39:48.401Z,15.90
2018-08-11T03:42:17.531Z,15.90
2018-08-11T03:44:45.446Z,15.90
2018-08-11T03:47:13.443Z,15.90
2018-08-11T03:49:41.750Z,15.80
2018-08-11T03:52:10.142Z,15.90
2018-08-11T03:54:37.691Z,15.90
2018-08-11T03:57:05.299Z,15.90
2018-08-11T03:59:32.846Z,15.90
2018-08-11T04:02:00.665Z,15.90
2018-08-11T04:04:28.253Z,15.90
2018-08-11T04:06:55.779Z,15.80
2018-08-11T04:09:23.283Z,15.80
2018-08-11T04:11:50.771Z,15.70
2018-08-11T04:14:19.078Z,15.70
2018-08-11T04:16:47.017Z,15.80
2018-08-11T04:19:14.540Z,15.80
2018-08-11T04:21:42.030Z,15.80
2018-08-11T04:24:10.064Z,15.90
2018-08-11T04:26:37.840Z,15.80
2018-08-11T04:29:05.467Z,15.90
2018-08-11T04:31:34.031Z,15.80
2018-08-11T04:34:01.558Z,15.80
2018-08-11T04:36:29.070Z,15.80
2018-08-11T04:38:56.933Z,15.80
2018-08-11T04:41:24.462Z,15.80
2018-08-11T04:43:51.974Z,15.80
2018-08-11T04:46:19.506Z,15.90
2018-08-11T04:48:47.019Z,15.90
2018-08-11T04:51:14.878Z,15.80
2018-08-11T04:53:42.778Z,15.90
2018-08-11T04:56:10.303Z,15.80
2018-08-11T04:58:38.382Z,15.80
2018-08-11T05:01:05.915Z,15.90
2018-08-11T05:03:33.755Z,15.90
2018-08-11T05:06:01.422Z,15.90
2018-08-11T05:08:29.441Z,16.00
2018-08-11T05:10:56.990Z,16.10
2018-08-11T05:13:24.529Z,16.10
2018-08-11T05:15:53.054Z,16.20
2018-08-11T05:18:21.734Z,16.20
2018-08-11T05:20:49.241Z,16.10
2018-08-11T05:23:16.763Z,16.10
2018-08-11T05:25:45.270Z,16.20
2018-08-11T05:28:12.763Z,16.30
2018-08-11T05:30:40.288Z,16.30
2018-08-11T05:33:07.828Z,16.50
2018-08-11T05:35:35.451Z,16.50
2018-08-11T05:38:03.451Z,16.60
2018-08-11T05:40:30.974Z,16.70
2018-08-11T05:42:58.912Z,16.80
2018-08-11T05:45:27.278Z,16.80
2018-08-11T05:47:55.287Z,16.90
2018-08-11T05:50:22.834Z,16.90
2018-08-11T05:52:51.563Z,16.90
2018-08-11T05:55:19.079Z,16.90
2018-08-11T05:57:46.670Z,17.00
2018-08-11T06:00:14.266Z,17.10
2018-08-11T06:02:41.814Z,17.20
2018-08-11T06:05:09.488Z,17.30
2018-08-11T06:07:37.042Z,17.40
2018-08-11T06:10:05.851Z,17.50
2018-08-11T06:12:33.924Z,17.60
2018-08-11T06:15:03.263Z,17.50
2018-08-11T06:17:31.683Z,17.50
2018-08-11T06:19:59.868Z,17.50
2018-08-11T06:22:27.384Z,17.50
2018-08-11T06:24:54.885Z,17.70
2018-08-11T06:27:22.430Z,17.80
2018-08-11T06:29:49.951Z,17.90
2018-08-11T06:32:17.672Z,17.90
2018-08-11T06:34:45.873Z,18.00
2018-08-11T06:37:13.375Z,18.10
2018-08-11T06:39:40.932Z,18.10
2018-08-11T06:42:08.471Z,18.30
2018-08-11T06:44:36.689Z,18.40
2018-08-11T06:47:04.272Z,18.60
2018-08-11T06:49:31.854Z,18.80
2018-08-11T06:51:59.979Z,19.00
2018-08-11T06:54:27.948Z,19.20
2018-08-11T06:56:55.483Z,19.30
2018-08-11T06:59:23.052Z,19.50
2018-08-11T07:01:50.773Z,19.60
2018-08-11T07:04:18.350Z,19.80
2018-08-11T07:06:45.986Z,20.10
2018-08-11T07:09:13.518Z,20.00
2018-08-11T07:11:41.035Z,20.10
2018-08-11T07:14:09.761Z,20.10
2018-08-11T07:16:38.142Z,20.10
2018-08-11T07:19:06.167Z,20.10
2018-08-11T07:21:33.691Z,20.20
2018-08-11T07:24:01.220Z,20.20
2018-08-11T07:26:28.751Z,20.10
2018-08-11T07:28:56.291Z,20.00
2018-08-11T07:31:25.158Z,20.00
2018-08-11T07:33:52.691Z,20.20
2018-08-11T07:36:20.463Z,20.40
2018-08-11T07:38:47.975Z,20.50
2018-08-11T07:41:15.523Z,20.70
2018-08-11T07:43:43.665Z,20.80
2018-08-11T07:46:11.262Z,20.80
2018-08-11T07:48:38.796Z,20.90
2018-08-11T07:51:07.044Z,21.20
2018-08-11T07:53:34.907Z,21.50
2018-08-11T07:56:02.522Z,21.70
2018-08-11T07:58:30.003Z,21.90
2018-08-11T08:00:57.515Z,21.70
2018-08-11T08:03:25.645Z,21.60
2018-08-11T08:05:53.155Z,21.60
2018-08-11T08:08:21.045Z,21.70
2018-08-11T08:10:48.583Z,21.80
2018-08-11T08:13:16.781Z,21.80
2018-08-11T08:15:44.667Z,21.80
2018-08-11T08:18:13.180Z,22.00
2018-08-11T08:20:40.716Z,22.10
2018-08-11T08:23:08.235Z,22.10
2018-08-11T08:25:35.769Z,22.20
2018-08-11T08:28:03.828Z,22.20
2018-08-11T08:30:32.028Z,22.30
2018-08-11T08:32:59.588Z,22.40
2018-08-11T08:35:27.090Z,22.40
2018-08-11T08:37:54.639Z,22.30
2018-08-11T08:40:22.724Z,22.40
2018-08-11T08:42:50.231Z,22.50
2018-08-11T08:45:17.806Z,22.60
2018-08-11T08:47:45.335Z,22.70
2018-08-11T08:50:12.916Z,22.70
2018-08-11T08:52:40.996Z,22.70
2018-08-11T08:55:08.516Z,22.70
2018-08-11T08:57:36.035Z,22.80
2018-08-11T09:00:04.207Z,22.70
2018-08-11T09:02:32.183Z,22.80
2018-08-11T09:04:59.765Z,22.60
2018-08-11T09:07:27.295Z,22.60
2018-08-11T09:09:54.821Z,22.50
2018-08-11T09:12:22.348Z,22.70
2018-08-11T09:14:50.752Z,22.70
2018-08-11T09:17:18.820Z,22.80
2018-08-11T09:19:46.324Z,23.10
2018-08-11T09:22:13.843Z,23.30
2018-08-11T09:24:41.390Z,23.30
2018-08-11T09:27:09.492Z,23.50
2018-08-11T09:29:37.020Z,23.60
2018-08-11T09:32:04.614Z,23.80
2018-08-11T09:34:32.164Z,24.00
2018-08-11T09:37:00.385Z,24.10
2018-08-11T09:39:27.915Z,24.00
2018-08-11T09:41:55.427Z,23.90
2018-08-11T09:44:22.990Z,23.90
2018-08-11T09:46:50.588Z,23.90
2018-08-11T09:49:18.190Z,23.90
2018-08-11T09:51:46.382Z,24.10
2018-08-11T09:54:15.031Z,24.20
2018-08-11T09:56:43.191Z,24.10
2018-08-11T09:59:10.710Z,23.80
2018-08-11T10:01:43.574Z,23.90
2018-08-11T10:04:12.043Z,23.90
2018-08-11T10:06:39.567Z,24.00
2018-08-11T10:09:10.342Z,23.90
2018-08-11T10:11:37.870Z,24.10
2018-08-11T10:14:05.855Z,24.20
2018-08-11T10:16:35.012Z,24.10
2018-08-11T10:19:02.525Z,24.00
2018-08-11T10:21:30.115Z,24.10
2018-08-11T10:23:58.417Z,24.10
2018-08-11T10:26:26.029Z,24.20
2018-08-11T10:28:53.601Z,24.30
2018-08-11T10:31:21.678Z,24.40
2018-08-11T10:33:49.182Z,24.60
2018-08-11T10:36:17.466Z,24.70
2018-08-11T10:38:44.982Z,24.70
2018-08-11T10:41:12.534Z,24.80
2018-08-11T10:43:40.404Z,24.70
2018-08-11T10:46:07.909Z,24.80
2018-08-11T10:48:35.451Z,24.80
2018-08-11T10:51:03.387Z,24.90
2018-08-11T10:53:31.258Z,24.90
2018-08-11T10:55:58.835Z,24.90
2018-08-11T10:58:26.342Z,24.90
2018-08-11T11:00:53.888Z,24.70
2018-08-11T11:03:21.444Z,24.70
2018-08-11T11:05:49.019Z,24.80
2018-08-11T11:08:16.609Z,24.80
2018-08-11T11:10:44.137Z,24.80
2018-08-11T11:13:11.645Z,24.90
2018-08-11T11:15:40.033Z,24.90
2018-08-11T11:18:08.204Z,25.00
2018-08-11T11:20:35.710Z,25.20
2018-08-11T11:23:04.364Z,25.50
2018-08-11T11:25:31.888Z,25.40
2018-08-11T11:27:59.407Z,25.30
2018-08-11T11:30:26.956Z,25.30
2018-08-11T11:32:55.139Z,25.50
2018-08-11T11:35:22.685Z,25.60
2018-08-11T11:37:50.567Z,25.70
2018-08-11T11:40:18.097Z,25.70
2018-08-11T11:42:45.631Z,25.90
2018-08-11T11:45:13.171Z,26.10
2018-08-11T11:47:40.663Z,26.20
2018-08-11T11:50:08.279Z,26.50
2018-08-11T11:52:36.259Z,26.70
2018-08-11T11:55:04.331Z,26.60
2018-08-11T11:57:31.829Z,26.50
2018-08-11T11:59:59.332Z,26.50
2018-08-11T12:02:26.942Z,26.50
2018-08-11T12:04:54.437Z,26.10
2018-08-11T12:07:22.091Z,26.50
2018-08-11T12:09:49.644Z,26.60
2018-08-11T12:12:17.154Z,26.30
2018-08-11T12:14:45.966Z,26.40
2018-08-11T12:17:14.053Z,26.30
2018-08-11T12:19:41.963Z,26.30
2018-08-11T12:22:10.070Z,26.40
2018-08-11T12:24:37.625Z,26.30
2018-08-11T12:27:05.166Z,26.20
2018-08-11T12:29:32.674Z,26.50
2018-08-11T12:32:02.171Z,26.60
2018-08-11T12:34:30.078Z,26.70
2018-08-11T12:36:57.592Z,26.90
2018-08-11T12:39:25.124Z,26.90
2018-08-11T12:41:52.752Z,26.90
2018-08-11T12:44:20.238Z,27.20
2018-08-11T12:46:47.842Z,27.30
2018-08-11T12:49:15.389Z,27.10
2018-08-11T12:51:43.262Z,26.90
2018-08-11T12:54:11.403Z,26.60
2018-08-11T12:56:38.911Z,26.40
2018-08-11T12:59:06.503Z,26.30
2018-08-11T13:01:34.058Z,26.30
2018-08-11T13:04:01.564Z,26.50
2018-08-11T13:06:29.144Z,26.50
2018-08-11T13:08:56.694Z,26.70
2018-08-11T13:11:24.839Z,26.70
2018-08-11T13:13:52.339Z,26.80
2018-08-11T13:16:20.713Z,26.90
2018-08-11T13:18:48.729Z,27.10
2018-08-11T13:21:16.239Z,27.20
2018-08-11T13:23:44.467Z,27.10
2018-08-11T13:26:12.004Z,27.00
2018-08-11T13:28:39.971Z,26.90
2018-08-11T13:31:07.558Z,27.00
2018-08-11T13:33:35.062Z,26.90
2018-08-11T13:36:02.605Z,26.90
2018-08-11T13:38:30.121Z,26.90
2018-08-11T13:40:57.695Z,26.90
2018-08-11T13:43:25.206Z,26.40
2018-08-11T13:45:52.708Z,26.40
2018-08-11T13:48:20.302Z,26.20
2018-08-11T13:50:48.427Z,26.10
2018-08-11T13:53:16.944Z,26.20
2018-08-11T13:55:45.115Z,26.40
2018-08-11T13:58:12.622Z,26.40
2018-08-11T14:00:40.146Z,26.50
2018-08-11T14:03:07.688Z,26.40
2018-08-11T14:05:35.291Z,26.40
2018-08-11T14:08:03.661Z,26.20
2018-08-11T14:10:31.176Z,26.20
2018-08-11T14:12:58.723Z,26.40
2018-08-11T14:15:26.846Z,26.50
2018-08-11T14:17:55.037Z,26.30
2018-08-11T14:20:22.670Z,26.30
2018-08-11T14:22:50.159Z,26.10
2018-08-11T14:25:18.553Z,25.90
2018-08-11T14:27:46.068Z,25.70
2018-08-11T14:30:13.589Z,25.80
2018-08-11T14:32:41.181Z,25.70
2018-08-11T14:35:08.747Z,25.70
2018-08-11T14:37:36.397Z,25.60
2018-08-11T14:40:06.837Z,25.60
2018-08-11T14:42:34.355Z,25.50
2018-08-11T14:45:01.951Z,25.50
2018-08-11T14:47:29.498Z,25.60
2018-08-11T14:49:57.023Z,25.50
2018-08-11T14:52:24.935Z,25.50
2018-08-11T14:54:53.155Z,25.60
2018-08-11T14:57:20.718Z,26.00
2018-08-11T14:59:48.255Z,26.10
2018-08-11T15:02:15.863Z,26.20
2018-08-11T15:04:43.781Z,26.40
2018-08-11T15:07:11.295Z,26.60
2018-08-11T15:09:38.815Z,26.30
2018-08-11T15:12:06.692Z,26.20
2018-08-11T15:14:34.847Z,26.20
2018-08-11T15:17:02.783Z,26.10
2018-08-11T15:19:30.285Z,26.30
2018-08-11T15:21:57.779Z,26.30
2018-08-11T15:24:25.725Z,26.20
2018-08-11T15:26:53.203Z,26.10
2018-08-11T15:29:20.724Z,25.70
2018-08-11T15:31:48.255Z,25.70
2018-08-11T15:34:15.774Z,25.40
2018-08-11T15:36:43.365Z,25.50
2018-08-11T15:39:12.511Z,25.30
2018-08-11T15:41:40.061Z,25.30
2018-08-11T15:44:07.599Z,25.30
2018-08-11T15:46:35.622Z,25.20
2018-08-11T15:49:03.301Z,25.20
2018-08-11T15:51:31.172Z,25.10
2018-08-11T15:53:59.019Z,25.20
2018-08-11T15:56:26.527Z,25.40
2018-08-11T15:58:54.023Z,25.50
2018-08-11T16:01:21.567Z,25.90
2018-08-11T16:03:49.062Z,26.30
2018-08-11T16:06:16.643Z,26.40
2018-08-11T16:08:44.175Z,26.30
2018-08-11T16:11:12.730Z,26.60
2018-08-11T16:13:40.272Z,26.50
2018-08-11T16:16:08.358Z,26.20
2018-08-11T16:18:36.638Z,25.80
2018-08-11T16:21:05.012Z,25.60
2018-08-11T16:23:32.558Z,25.40
2018-08-11T16:26:00.105Z,25.20
2018-08-11T16:28:27.995Z,25.00
2018-08-11T16:30:55.495Z,24.80
2018-08-11T16:33:23.084Z,24.70
2018-08-11T16:35:50.598Z,24.60
2018-08-11T16:38:18.591Z,24.50
2018-08-11T16:40:46.769Z,24.30
2018-08-11T16:43:14.277Z,24.30
2018-08-11T16:45:41.864Z,24.20
2018-08-11T16:48:09.391Z,24.20
2018-08-11T16:50:36.926Z,24.10
2018-08-11T16:53:05.509Z,24.00
2018-08-11T16:55:33.027Z,24.00
2018-08-11T16:58:00.591Z,23.90
2018-08-11T17:00:28.119Z,23.90
2018-08-11T17:02:55.708Z,23.90
2018-08-11T17:05:23.356Z,23.80
2018-08-11T17:07:51.613Z,23.80
2018-08-11T17:10:19.175Z,23.70
2018-08-11T17:12:46.714Z,23.60
2018-08-11T17:15:14.643Z,23.60
2018-08-11T17:17:42.494Z,23.50
2018-08-11T17:20:10.479Z,23.50
2018-08-11T17:22:37.987Z,23.50
2018-08-11T17:25:05.542Z,23.30
2018-08-11T17:27:33.526Z,23.30
2018-08-11T17:30:01.034Z,23.30
2018-08-11T17:32:28.656Z,23.30
2018-08-11T17:34:56.167Z,23.30
2018-08-11T17:37:24.336Z,23.20
2018-08-11T17:39:51.854Z,23.10
2018-08-11T17:42:19.387Z,23.00
2018-08-11T17:44:46.939Z,22.90
2018-08-11T17:47:14.455Z,22.90
2018-08-11T17:49:42.062Z,22.80
2018-08-11T17:52:09.955Z,22.80
2018-08-11T17:54:38.123Z,22.70
2018-08-11T17:57:05.675Z,22.70
2018-08-11T17:59:33.195Z,22.60
2018-08-11T18:02:00.724Z,22.50
2018-08-11T18:04:28.231Z,22.50
2018-08-11T18:06:56.213Z,22.40
2018-08-11T18:09:23.745Z,22.30
2018-08-11T18:11:51.247Z,22.30
2018-08-11T18:14:19.359Z,22.20
2018-08-11T18:16:47.235Z,22.20
2018-08-11T18:19:14.742Z,22.20
2018-08-11T18:21:42.257Z,22.00
2018-08-11T18:24:09.815Z,21.90
2018-08-11T18:26:37.323Z,21.80
2018-08-11T18:29:05.064Z,21.80
2018-08-11T18:31:32.967Z,21.80
2018-08-11T18:34:01.478Z,21.80
2018-08-11T18:36:28.975Z,21.80
2018-08-11T18:38:56.500Z,21.80
2018-08-11T18:41:24.014Z,21.70
2018-08-11T18:43:51.563Z,21.70
2018-08-11T18:46:19.135Z,21.70
2018-08-11T18:48:46.686Z,21.70
2018-08-11T18:51:15.001Z,21.60
2018-08-11T18:53:43.141Z,21.60
2018-08-11T18:56:10.655Z,21.50
2018-08-11T18:58:38.191Z,21.60
2018-08-11T19:01:05.868Z,21.40
2018-08-11T19:03:33.713Z,21.40
2018-08-11T19:06:01.243Z,21.40
2018-08-11T19:08:28.759Z,21.30
2018-08-11T19:10:56.284Z,21.10
2018-08-11T19:13:24.754Z,21.00
2018-08-11T19:15:52.874Z,20.90
2018-08-11T19:18:20.782Z,20.90
2018-08-11T19:20:48.352Z,20.90
2018-08-11T19:23:16.446Z,20.80
2018-08-11T19:25:44.007Z,20.80
2018-08-11T19:28:11.532Z,20.70
2018-08-11T19:30:39.691Z,20.60
2018-08-11T19:33:07.227Z,20.50
2018-08-11T19:35:34.830Z,20.40
2018-08-11T19:38:02.478Z,20.40
2018-08-11T19:40:30.062Z,20.40
2018-08-11T19:42:57.614Z,20.40
2018-08-11T19:45:25.204Z,20.30
2018-08-11T19:47:52.790Z,20.30
2018-08-11T19:50:20.329Z,20.20
2018-08-11T19:52:48.258Z,20.10
2018-08-11T19:55:16.538Z,19.90
2018-08-11T19:57:44.081Z,19.80
2018-08-11T20:00:13.595Z,19.80
2018-08-11T20:02:41.606Z,19.70
2018-08-11T20:05:10.003Z,19.60
2018-08-11T20:07:38.107Z,19.50
2018-08-11T20:10:06.353Z,19.50
2018-08-11T20:12:34.520Z,19.60
2018-08-11T20:15:02.790Z,19.60
2018-08-11T20:17:30.754Z,19.60
2018-08-11T20:19:58.838Z,19.60
2018-08-11T20:22:26.390Z,19.60
2018-08-11T20:24:53.926Z,19.60
2018-08-11T20:27:21.506Z,19.60
2018-08-11T20:29:49.017Z,19.50
2018-08-11T20:32:16.667Z,19.40
2018-08-11T20:34:44.219Z,19.20
2018-08-11T20:37:12.553Z,19.10
2018-08-11T20:39:40.428Z,19.10
2018-08-11T20:42:08.314Z,19.10
2018-08-11T20:44:36.280Z,19.10
2018-08-11T20:47:03.827Z,19.00
2018-08-11T20:49:31.511Z,18.80
2018-08-11T20:51:59.569Z,18.70
2018-08-11T20:54:27.806Z,18.70
2018-08-11T20:56:55.691Z,18.70
2018-08-11T20:59:23.838Z,18.70
2018-08-11T21:01:51.897Z,18.70
2018-08-11T21:04:19.423Z,18.70
2018-08-11T21:06:46.966Z,18.80
2018-08-11T21:09:15.021Z,18.70
2018-08-11T21:11:42.567Z,18.70
2018-08-11T21:14:10.977Z,18.60
2018-08-11T21:16:39.251Z,18.60
2018-08-11T21:19:07.381Z,18.50
2018-08-11T21:21:35.026Z,18.50
2018-08-11T21:24:02.833Z,18.40
2018-08-11T21:26:30.353Z,18.40
2018-08-11T21:28:58.126Z,18.40
2018-08-11T21:31:25.691Z,18.20
2018-08-11T21:33:53.926Z,18.00
2018-08-11T21:36:21.752Z,18.00
2018-08-11T21:38:49.350Z,17.90
2018-08-11T21:41:17.334Z,17.80
2018-08-11T21:43:45.547Z,17.70
2018-08-11T21:46:13.137Z,17.60
2018-08-11T21:48:40.666Z,17.70
2018-08-11T21:51:08.502Z,17.60
2018-08-11T21:53:36.598Z,17.60
2018-08-11T21:56:04.563Z,17.60
2018-08-11T21:58:32.099Z,17.60
2018-08-11T22:01:12.406Z,17.60
2018-08-11T22:03:41.382Z,17.60
2018-08-11T22:06:09.780Z,17.50
2018-08-11T22:08:37.596Z,17.50
2018-08-11T22:11:05.346Z,17.40
2018-08-11T22:13:32.953Z,17.40
2018-08-11T22:16:02.379Z,17.20
2018-08-11T22:18:30.990Z,17.20
2018-08-11T22:20:59.070Z,17.20
2018-08-11T22:23:26.755Z,17.20
2018-08-11T22:25:54.442Z,17.20
2018-08-11T22:28:22.019Z,17.20
2018-08-11T22:30:49.780Z,17.20
2018-08-11T22:33:17.398Z,17.30
2018-08-11T22:35:45.058Z,17.30
2018-08-11T22:38:12.950Z,17.20
2018-08-11T22:40:40.617Z,17.20
2018-08-11T22:43:08.585Z,17.00
2018-08-11T22:45:36.134Z,16.90
2018-08-11T22:48:04.131Z,16.70
2018-08-11T22:50:31.662Z,16.70
2018-08-11T22:52:59.895Z,16.60
2018-08-11T22:55:27.922Z,16.50
2018-08-11T22:57:55.454Z,16.50
2018-08-11T23:00:23.897Z,16.60
2018-08-11T23:02:51.491Z,16.50
2018-08-11T23:05:20.651Z,16.50
2018-08-11T23:07:48.260Z,16.60
2018-08-11T23:10:16.633Z,16.60
2018-08-11T23:12:45.153Z,16.60
2018-08-11T23:15:16.659Z,16.70
2018-08-11T23:17:46.334Z,16.70
2018-08-11T23:20:14.451Z,16.70
2018-08-11T23:22:42.776Z,16.70
2018-08-11T23:25:10.959Z,16.60
2018-08-11T23:27:38.542Z,16.50
2018-08-11T23:30:09.878Z,16.50
2018-08-11T23:32:37.716Z,16.50
2018-08-11T23:35:05.294Z,16.50
2018-08-11T23:37:32.873Z,16.50
2018-08-11T23:40:00.494Z,16.50
2018-08-11T23:42:28.302Z,16.50
2018-08-11T23:44:55.852Z,16.40
2018-08-11T23:47:23.486Z,16.40
2018-08-11T23:49:51.070Z,16.30
2018-08-11T23:52:20.542Z,16.30
2018-08-11T23:54:48.913Z,16.30
2018-08-11T23:57:16.519Z,16.20
2018-08-11T23:59:44.012Z,16.20
